createdAt,value
2023-04-23T00:03:58.966Z,43.09
2023-04-23T00:09:01.651Z,43.01
2023-04-23T00:14:03.627Z,42.95
2023-04-23T00:19:05.753Z,42.93
2023-04-23T00:24:07.724Z,42.91
2023-04-23T00:29:09.522Z,42.91
2023-04-23T00:34:11.356Z,42.89
2023-04-23T00:39:13.180Z,42.96
2023-04-23T00:44:15.164Z,43.22
2023-04-23T00:49:19.182Z,42.92
2023-04-23T00:54:21.001Z,42.86
2023-04-23T00:59:22.817Z,42.87
2023-04-23T01:04:28.010Z,43.06
2023-04-23T01:09:30.112Z,43.17
2023-04-23T01:14:32.211Z,43.04
2023-04-23T01:19:34.159Z,43.08
2023-04-23T01:24:36.937Z,42.95
2023-04-23T01:29:39.771Z,43.33
2023-04-23T01:34:42.555Z,43.28
2023-04-23T01:39:44.661Z,43.41
2023-04-23T01:44:46.509Z,43.11
2023-04-23T01:49:48.503Z,42.96
2023-04-23T01:54:50.726Z,42.95
2023-04-23T01:59:59.159Z,43.01
2023-04-23T02:05:04.947Z,43.09
2023-04-23T02:10:08.187Z,42.85
2023-04-23T02:15:10.580Z,43.33
2023-04-23T02:20:12.866Z,43.28
2023-04-23T02:25:16.145Z,42.92
2023-04-23T02:30:17.947Z,43.25
2023-04-23T02:35:19.820Z,43.22
2023-04-23T02:40:21.791Z,43.37
2023-04-23T02:45:23.650Z,43.36
2023-04-23T02:50:25.484Z,43.22
2023-04-23T02:55:30.015Z,43.01
2023-04-23T03:00:31.853Z,43.12
2023-04-23T03:05:33.777Z,43.34
2023-04-23T03:10:35.576Z,43.18
2023-04-23T03:15:37.382Z,43.18
2023-04-23T03:20:39.119Z,43.07
2023-04-23T03:25:40.901Z,43.04
2023-04-23T03:30:43.241Z,43.26
2023-04-23T03:35:45.227Z,43.36
2023-04-23T03:40:47.135Z,43.41
2023-04-23T03:45:48.948Z,43.22
2023-04-23T03:50:50.928Z,43.13
2023-04-23T03:55:52.692Z,43.44
2023-04-23T04:00:54.673Z,43.30
2023-04-23T04:05:56.463Z,43.38
2023-04-23T04:10:58.354Z,43.09
2023-04-23T04:16:00.195Z,43.12
2023-04-23T04:21:02.034Z,43.31
2023-04-23T04:26:03.869Z,43.48
2023-04-23T04:31:07.147Z,43.21
2023-04-23T04:36:09.742Z,43.22
2023-04-23T04:41:11.723Z,43.17
2023-04-23T04:46:13.977Z,43.16
2023-04-23T04:51:16.333Z,43.26
2023-04-23T04:56:18.121Z,43.23
2023-04-23T05:01:21.541Z,43.45
2023-04-23T05:06:23.457Z,43.45
2023-04-23T05:11:25.353Z,43.24
2023-04-23T05:16:27.175Z,43.56
2023-04-23T05:21:29.079Z,43.58
2023-04-23T05:26:30.932Z,43.12
2023-04-23T05:31:32.820Z,43.44
2023-04-23T05:36:34.746Z,43.22
2023-04-23T05:41:36.556Z,43.38
2023-04-23T05:46:38.975Z,43.37
2023-04-23T05:51:40.997Z,43.45
2023-04-23T05:56:42.775Z,43.35
2023-04-23T06:01:44.717Z,43.41
2023-04-23T06:06:46.603Z,43.11
2023-04-23T06:11:50.791Z,43.07
2023-04-23T06:16:52.548Z,43.28
2023-04-23T06:21:54.843Z,43.21
2023-04-23T06:26:56.620Z,43.24
2023-04-23T06:32:02.003Z,43.40
2023-04-23T06:37:04.080Z,43.21
2023-04-23T06:42:05.935Z,43.13
2023-04-23T06:47:07.782Z,43.10
2023-04-23T06:52:09.702Z,43.07
2023-04-23T06:57:11.488Z,43.07
2023-04-23T07:02:13.448Z,44.03
2023-04-23T07:07:15.267Z,42.83
2023-04-23T07:12:17.162Z,42.38
2023-04-23T07:17:18.917Z,42.17
2023-04-23T07:22:20.732Z,42.08
2023-04-23T07:27:22.553Z,42.73
2023-04-23T07:32:28.375Z,43.31
2023-04-23T07:37:30.520Z,43.23
2023-04-23T07:42:32.519Z,43.58
2023-04-23T07:47:34.472Z,43.75
2023-04-23T07:52:36.294Z,43.19
2023-04-23T07:57:38.288Z,45.82
2023-04-23T08:02:40.401Z,46.24
2023-04-23T08:07:42.351Z,45.91
2023-04-23T08:12:44.434Z,46.24
2023-04-23T08:17:46.374Z,45.89
2023-04-23T08:22:48.222Z,45.20
2023-04-23T08:27:50.297Z,44.79
2023-04-23T08:32:55.733Z,44.50
2023-04-23T08:37:57.547Z,44.15
2023-04-23T08:43:03.429Z,45.27
2023-04-23T08:48:05.853Z,45.32
2023-04-23T08:53:08.350Z,45.60
2023-04-23T08:58:10.368Z,45.30
2023-04-23T09:03:12.741Z,45.40
2023-04-23T09:08:14.624Z,44.76
2023-04-23T09:13:16.703Z,43.44
2023-04-23T09:18:20.207Z,43.10
2023-04-23T09:23:23.056Z,43.32
2023-04-23T09:28:37.925Z,43.15
2023-04-23T09:33:40.167Z,43.37
2023-04-23T09:38:41.970Z,43.19
2023-04-23T09:43:43.728Z,43.16
2023-04-23T09:48:46.206Z,42.79
2023-04-23T09:53:48.154Z,43.00
2023-04-23T09:58:49.947Z,42.47
2023-04-23T10:03:53.759Z,42.21
2023-04-23T10:08:59.024Z,42.49
2023-04-23T10:14:01.153Z,42.44
2023-04-23T10:19:04.797Z,42.21
2023-04-23T10:24:07.621Z,42.04
2023-04-23T10:29:15.697Z,41.92
2023-04-23T10:34:17.981Z,41.65
2023-04-23T10:39:29.813Z,41.84
2023-04-23T10:44:56.578Z,42.12
2023-04-23T10:49:55.916Z,41.87
2023-04-23T10:55:00.365Z,41.94
2023-04-23T11:00:04.788Z,42.10
2023-04-23T11:05:09.945Z,41.94
2023-04-23T11:10:13.990Z,41.71
2023-04-23T11:15:19.558Z,41.71
2023-04-23T11:20:22.758Z,41.86
2023-04-23T11:25:27.202Z,41.96
2023-04-23T11:30:30.732Z,42.04
2023-04-23T11:35:40.234Z,42.08
2023-04-23T11:40:43.081Z,41.75
2023-04-23T11:45:45.052Z,41.86
2023-04-23T11:50:47.036Z,41.53
2023-04-23T11:55:49.547Z,41.53
2023-04-23T12:00:59.364Z,41.79
2023-04-23T12:06:01.212Z,41.24
2023-04-23T12:11:06.433Z,41.65
2023-04-23T12:16:09.833Z,41.70
2023-04-23T12:21:13.725Z,41.37
2023-04-23T12:26:16.826Z,41.72
2023-04-23T12:31:29.502Z,41.15
2023-04-23T12:36:32.058Z,41.54
2023-04-23T12:41:33.851Z,41.10
2023-04-23T12:46:35.789Z,41.14
2023-04-23T12:51:37.842Z,41.17
2023-04-23T12:56:39.667Z,40.92
2023-04-23T13:01:42.005Z,40.92
2023-04-23T13:06:43.944Z,40.80
2023-04-23T13:11:48.884Z,40.96
2023-04-23T13:16:51.204Z,40.79
2023-04-23T13:21:53.960Z,40.87
2023-04-23T13:26:56.477Z,40.75
2023-04-23T13:31:58.690Z,40.75
2023-04-23T13:37:00.759Z,41.07
2023-04-23T13:42:09.616Z,41.01
2023-04-23T13:47:12.101Z,41.16
2023-04-23T13:52:13.927Z,41.13
2023-04-23T13:57:15.816Z,41.20
2023-04-23T14:02:17.671Z,41.49
2023-04-23T14:07:19.544Z,41.36
2023-04-23T14:12:21.404Z,41.61
2023-04-23T14:17:23.372Z,41.50
2023-04-23T14:22:25.205Z,41.33
2023-04-23T14:27:27.178Z,41.39
2023-04-23T14:32:29.046Z,41.75
2023-04-23T14:37:30.927Z,41.66
2023-04-23T14:42:32.698Z,41.66
2023-04-23T14:47:34.519Z,41.82
2023-04-23T14:52:36.473Z,41.67
2023-04-23T14:57:38.297Z,41.92
2023-04-23T15:02:41.022Z,41.85
2023-04-23T15:07:43.212Z,41.75
2023-04-23T15:12:59.819Z,41.63
2023-04-23T15:18:01.654Z,42.02
2023-04-23T15:23:03.528Z,41.69
2023-04-23T15:28:07.367Z,41.85
2023-04-23T15:33:09.150Z,42.30
2023-04-23T15:38:10.943Z,43.16
2023-04-23T15:43:13.797Z,43.52
2023-04-23T15:48:16.245Z,43.79
2023-04-23T15:53:20.314Z,43.91
2023-04-23T15:58:22.197Z,43.90
2023-04-23T16:03:24.315Z,44.08
2023-04-23T16:08:26.170Z,44.25
2023-04-23T16:13:29.152Z,44.10
2023-04-23T16:18:31.919Z,44.07
2023-04-23T16:23:33.844Z,44.47
2023-04-23T16:28:35.772Z,44.45
2023-04-23T16:33:37.748Z,44.42
2023-04-23T16:38:40.700Z,44.21
2023-04-23T16:43:42.518Z,44.73
2023-04-23T16:48:45.484Z,44.97
2023-04-23T16:53:47.376Z,44.49
2023-04-23T16:58:49.588Z,44.40
2023-04-23T17:03:51.606Z,44.38
2023-04-23T17:08:54.440Z,44.35
2023-04-23T17:13:57.305Z,44.55
2023-04-23T17:18:59.142Z,44.71
2023-04-23T17:24:01.430Z,44.33
2023-04-23T17:29:03.215Z,44.26
2023-04-23T17:34:05.045Z,44.20
2023-04-23T17:39:07.726Z,44.09
2023-04-23T17:44:09.512Z,43.85
2023-04-23T17:49:11.253Z,43.91
2023-04-23T17:54:13.013Z,43.83
2023-04-23T17:59:16.059Z,43.63
2023-04-23T18:04:18.150Z,43.49
2023-04-23T18:09:19.983Z,43.67
2023-04-23T18:14:25.585Z,44.09
2023-04-23T18:19:27.464Z,44.31
2023-04-23T18:24:29.298Z,43.86
2023-04-23T18:29:31.042Z,43.79
2023-04-23T18:34:37.735Z,43.67
2023-04-23T18:39:40.767Z,43.82
2023-04-23T18:44:42.825Z,43.61
2023-04-23T18:49:47.047Z,43.44
2023-04-23T18:54:48.970Z,43.24
2023-04-23T18:59:50.745Z,43.45
2023-04-23T19:04:52.745Z,43.10
2023-04-23T19:09:54.679Z,43.20
2023-04-23T19:14:56.520Z,42.86
2023-04-23T19:19:58.327Z,42.84
2023-04-23T19:25:00.171Z,42.88
2023-04-23T19:30:02.675Z,43.21
2023-04-23T19:35:05.849Z,43.18
2023-04-23T19:40:08.739Z,44.07
2023-04-23T19:45:11.066Z,44.29
2023-04-23T19:50:14.144Z,44.22
2023-04-23T19:55:18.517Z,44.28
2023-04-23T20:00:20.552Z,43.86
2023-04-23T20:05:22.747Z,44.02
2023-04-23T20:10:30.571Z,43.92
2023-04-23T20:15:32.737Z,44.20
2023-04-23T20:20:35.923Z,44.13
2023-04-23T20:25:37.712Z,43.88
2023-04-23T20:30:39.676Z,44.21
2023-04-23T20:35:43.404Z,44.08
2023-04-23T20:40:48.550Z,44.49
2023-04-23T20:45:51.071Z,44.34
2023-04-23T20:50:53.005Z,44.64
2023-04-23T20:55:56.905Z,44.34
2023-04-23T21:06:01.176Z,44.38
2023-04-23T21:11:03.284Z,44.05
2023-04-23T21:16:05.261Z,43.90
2023-04-23T21:21:08.219Z,43.93
2023-04-23T21:26:10.197Z,43.68
2023-04-23T21:31:22.518Z,43.99
2023-04-23T21:36:24.352Z,43.98
2023-04-23T21:41:26.308Z,44.09
2023-04-23T21:46:28.278Z,44.67
2023-04-23T21:51:30.342Z,44.23
2023-04-23T21:56:32.633Z,44.25
2023-04-23T22:01:36.636Z,43.86
2023-04-23T22:06:38.977Z,44.02
2023-04-23T22:11:44.228Z,43.69
2023-04-23T22:16:51.426Z,43.67
2023-04-23T22:21:53.276Z,43.55
2023-04-23T22:26:55.343Z,43.49
2023-04-23T22:31:57.131Z,43.52
2023-04-23T22:36:58.949Z,43.40
2023-04-23T22:42:01.205Z,43.51
2023-04-23T22:47:02.972Z,43.38
2023-04-23T22:52:04.814Z,43.05
2023-04-23T22:57:06.875Z,43.20
2023-04-23T23:02:08.786Z,42.80
2023-04-23T23:07:11.402Z,42.86
2023-04-23T23:12:13.220Z,42.96
2023-04-23T23:17:15.031Z,42.65
2023-04-23T23:22:16.826Z,42.58
2023-04-23T23:27:18.604Z,42.62
2023-04-23T23:32:20.580Z,42.73
2023-04-23T23:37:22.696Z,42.53
2023-04-23T23:42:24.552Z,42.52
2023-04-23T23:47:26.465Z,42.61
2023-04-23T23:52:28.314Z,42.41
2023-04-23T23:57:30.143Z,42.30
